Reads Landing, MN

3:10 AM CDT on July 29, 2014 (GMT -0500)
Robinson Lake (KMNWABAS5) Elev 696 ft | 44.36 °N, 92.00 °W | Change Station

Current weather conditions updated 4 minutes ago

Clear
Clear
55.6 °F
Feels Like 55.6 °F
N
1.7
Wind Variable Wind from WSW

Today is forecast to be nearly the same temperature as yesterday.

Today
High -- | Low -- °F
--% Chance of Precip.
Yesterday
High -- | Low -- °F
Precip. -- in
5:52 AM 8:36 PM
Waxing Crescent, 5% visible
Pressure 30.10 in
Visibility 7.0 miles
Clouds Clear
Dew Point 55 °F
Humidity 99%
Rainfall 0.00 in
Snow Depth Not available.
UV 0 out of 12
Pollen 6.40 out of 12
Air Quality Not available.
Flu Activity Not available.
METAR KRGK 290755Z AUTO 00000KT 7SM CLR 13/12 A3010 RMK AO2

More Conditions Fewer Conditions

Pressure 30.10 in
Visibility 7.0 miles
Clouds Clear
Dew Point 55 °F
Humidity 99%
Rainfall 0.00 in
Snow Depth Not available.
UV 0 out of 12
Pollen 6.40 out of 12
Air Quality Not available.
Flu Activity Not available.
METAR KRGK 290755Z AUTO 00000KT 7SM CLR 13/12 A3010 RMK AO2

More Conditions Fewer Conditions

10-Day Weather Forecast

Almanac

Astronomy

Jul. 29, 2014 Rise Set
Actual Time 5:52 AM CDT 8:36 PM CDT
Civil Twilight 5:18 AM CDT 9:10 PM CDT
Nautical Twilight 4:35 AM CDT 9:52 PM CDT
Astronomical Twilight 3:46 AM CDT 10:41 PM CDT
Moon 8:37 AM CDT 9:40 PM CDT
Length of Visible Light 15h 51m
Length of Day
14h 44m
Tomorrow will be 2m 17s shorter.
Waxing Crescent, 5% of the Moon is Illuminated
Today
Waxing Crescent
Aug 3
First Quarter
Aug 10
Full
Aug 17
Last Quarter
Aug 25
New

Today's Extremes

State Highs State Lows

Community

WunderPhotos

Upload Photos

1,738,654 photos uploaded!

Nearby

Snow Depth

Station Depth Elevation
No new snow has been reported.

Earthquake Activity

City Distance Mag. Time & Date
No recent earthquake activity has been reported nearby.
Minimum magnitude displayed is 2.5.

Coastal Water Temperatures

Place Temperature
No Stations Reporting

Nearby Weather Stations

Station Location Temp. Dew Point Humidity Wind Precip. Elev Updated Type
Robinson Lake, Wabasha, MN 55.6 °F 55 °F 99% WSW  at  1.7 mph - / hr 696 ft 3:05 AM CDT Normal
Rics Igloo7, Lake City, MN 56.1 °F 54 °F 93% NW  at  1.0 mph 0.00 in / hr 733 ft 3:09 AM CDT Normal
SIGHT-SEA-ER II, Lake City, MN 55.9 °F 54 °F 93% NW  at  0.0 mph 0.00 in / hr 728 ft 2:58 AM CDT Normal
SE Minn, Lake City, MN 55.4 °F 54 °F 96% NW  at  0.0 mph 0.00 in / hr 1000 ft 3:09 AM CDT Rapid Fire
APRSWXNET Zumbro Falls MN , Zumbro Falls, MN - - - WNW  at  0 mph 0.00 in / hr 836 ft 11:31 PM CDT MADIS
Minnesota, Altura, MN 57.4 °F 52 °F 83% West  at  2.2 mph 0.00 in / hr 1165 ft 3:10 AM CDT Rapid Fire

Show More Stations Show Fewer Stations